createdAt,value
2022-12-25T00:02:05.532Z,5.92
2022-12-25T00:05:09.627Z,5.95
2022-12-25T00:08:12.321Z,6.08
2022-12-25T00:11:18.195Z,6.14
2022-12-25T00:14:21.104Z,6.11
2022-12-25T00:17:23.939Z,6.12
2022-12-25T00:20:26.513Z,6.16
2022-12-25T00:23:30.193Z,6.29
2022-12-25T00:26:32.821Z,6.22
2022-12-25T00:29:36.063Z,6.13
2022-12-25T00:32:38.675Z,6.14
2022-12-25T00:35:41.736Z,6.02
2022-12-25T00:38:45.529Z,5.95
2022-12-25T00:42:07.015Z,5.86
2022-12-25T00:45:10.027Z,5.72
2022-12-25T00:48:12.881Z,5.61
2022-12-25T00:51:15.526Z,5.54
2022-12-25T00:54:18.643Z,5.43
2022-12-25T00:57:21.318Z,5.34
2022-12-25T01:00:24.533Z,5.26
2022-12-25T01:03:27.816Z,5.14
2022-12-25T01:06:31.206Z,5.10
2022-12-25T01:09:52.541Z,5.12
2022-12-25T01:12:55.466Z,5.39
2022-12-25T01:15:58.476Z,5.50
2022-12-25T01:19:01.740Z,5.47
2022-12-25T01:22:04.342Z,5.56
2022-12-25T01:25:09.094Z,5.49
2022-12-25T01:28:11.675Z,5.40
2022-12-25T01:31:17.212Z,5.28
2022-12-25T01:34:19.801Z,5.15
2022-12-25T01:37:24.727Z,5.10
2022-12-25T01:40:27.455Z,4.98
2022-12-25T01:43:32.322Z,4.99
2022-12-25T01:46:36.295Z,4.94
2022-12-25T01:49:42.456Z,4.92
2022-12-25T01:52:46.351Z,4.93
2022-12-25T01:55:53.972Z,4.93
2022-12-25T01:58:58.285Z,4.92
2022-12-25T02:02:01.455Z,4.93
2022-12-25T02:05:14.323Z,4.97
2022-12-25T02:08:20.555Z,5.01
2022-12-25T02:11:42.205Z,5.05
2022-12-25T02:14:45.861Z,5.06
2022-12-25T02:18:03.793Z,5.02
2022-12-25T02:21:15.627Z,4.99
2022-12-25T02:24:33.563Z,4.94
2022-12-25T02:28:05.491Z,5.01
2022-12-25T02:31:22.384Z,4.90
2022-12-25T02:34:57.153Z,4.89
2022-12-25T02:38:11.362Z,4.86
2022-12-25T02:41:16.723Z,4.79
2022-12-25T02:44:41.874Z,4.73
2022-12-25T02:48:03.252Z,4.76
2022-12-25T02:51:28.905Z,4.75
2022-12-25T02:54:55.054Z,4.87
2022-12-25T02:58:21.345Z,4.92
2022-12-25T03:01:47.448Z,4.87
2022-12-25T03:05:11.761Z,4.80
2022-12-25T03:08:19.816Z,4.74
2022-12-25T03:11:32.711Z,4.73
2022-12-25T03:14:54.048Z,4.71
2022-12-25T03:18:01.517Z,4.75
2022-12-25T03:21:23.249Z,4.71
2022-12-25T03:24:44.674Z,4.67
2022-12-25T03:27:51.646Z,4.62
2022-12-25T03:31:30.145Z,4.59
2022-12-25T03:35:01.790Z,4.53
2022-12-25T03:38:47.551Z,4.57
2022-12-25T03:42:14.185Z,4.62
2022-12-25T03:46:13.350Z,4.69
2022-12-25T03:50:11.729Z,4.70
2022-12-25T03:53:43.187Z,4.64
2022-12-25T03:57:05.033Z,4.69
2022-12-25T04:00:27.069Z,4.65
2022-12-25T04:03:48.571Z,4.56
2022-12-25T04:07:09.435Z,4.41
2022-12-25T04:10:30.827Z,4.40
2022-12-25T04:14:00.512Z,4.40
2022-12-25T04:17:21.927Z,4.53
2022-12-25T04:20:46.058Z,4.69
2022-12-25T04:24:07.604Z,4.73
2022-12-25T04:27:28.540Z,4.68
2022-12-25T04:30:50.512Z,4.60
2022-12-25T04:34:11.645Z,4.63
2022-12-25T04:37:14.651Z,4.74
2022-12-25T04:40:17.442Z,4.69
2022-12-25T04:43:20.278Z,4.64
2022-12-25T04:46:22.955Z,4.56
2022-12-25T04:49:26.306Z,4.51
2022-12-25T04:52:29.096Z,4.46
2022-12-25T04:55:31.979Z,4.46
2022-12-25T04:58:34.962Z,4.38
2022-12-25T05:01:37.881Z,4.24
2022-12-25T05:04:40.466Z,4.04
2022-12-25T05:07:43.347Z,3.98
2022-12-25T05:10:46.164Z,3.84
2022-12-25T05:13:49.053Z,3.88
2022-12-25T05:16:51.773Z,3.80
2022-12-25T05:19:54.796Z,3.89
2022-12-25T05:22:57.447Z,3.75
2022-12-25T05:26:07.245Z,3.67
2022-12-25T05:29:12.565Z,3.60
2022-12-25T05:32:15.411Z,3.57
2022-12-25T05:35:17.910Z,3.49
2022-12-25T05:38:20.830Z,3.47
2022-12-25T05:41:23.383Z,3.47
2022-12-25T05:44:26.206Z,3.49
2022-12-25T05:47:28.791Z,3.37
2022-12-25T05:50:31.851Z,3.34
2022-12-25T05:53:40.154Z,3.24
2022-12-25T05:56:43.071Z,3.19
2022-12-25T05:59:45.606Z,3.22
2022-12-25T06:02:48.733Z,3.31
2022-12-25T06:05:52.554Z,3.22
2022-12-25T06:08:55.443Z,3.13
2022-12-25T06:11:58.447Z,3.13
2022-12-25T06:15:00.980Z,3.06
2022-12-25T06:18:04.257Z,3.00
2022-12-25T06:21:12.121Z,2.95
2022-12-25T06:24:20.979Z,2.88
2022-12-25T06:27:24.653Z,2.83
2022-12-25T06:30:27.787Z,2.85
2022-12-25T06:33:30.882Z,2.78
2022-12-25T06:36:33.950Z,2.75
2022-12-25T06:39:36.483Z,2.76
2022-12-25T06:42:39.494Z,2.79
2022-12-25T06:45:42.190Z,2.80
2022-12-25T06:48:49.399Z,2.68
2022-12-25T06:51:52.163Z,2.63
2022-12-25T06:54:55.035Z,2.67
2022-12-25T06:57:57.573Z,2.73
2022-12-25T07:01:00.673Z,2.72
2022-12-25T07:04:06.535Z,2.77
2022-12-25T07:07:10.114Z,2.77
2022-12-25T07:10:12.956Z,2.80
2022-12-25T07:13:16.228Z,2.87
2022-12-25T07:16:19.154Z,2.93
2022-12-25T07:19:22.242Z,3.08
2022-12-25T07:22:25.047Z,3.11
2022-12-25T07:25:30.884Z,3.29
2022-12-25T07:28:38.692Z,3.31
2022-12-25T07:31:41.794Z,3.32
2022-12-25T07:34:44.809Z,3.31
2022-12-25T07:37:47.787Z,3.32
2022-12-25T07:40:50.341Z,3.36
2022-12-25T07:43:54.279Z,3.49
2022-12-25T07:46:56.869Z,3.75
2022-12-25T07:49:59.833Z,3.84
2022-12-25T07:53:03.419Z,3.86
2022-12-25T07:56:08.079Z,3.97
2022-12-25T07:59:10.679Z,4.09
2022-12-25T08:02:13.699Z,4.28
2022-12-25T08:05:17.062Z,4.44
2022-12-25T08:08:19.789Z,4.41
2022-12-25T08:11:23.613Z,4.33
2022-12-25T08:14:26.393Z,4.34
2022-12-25T08:17:29.317Z,4.37
2022-12-25T08:20:31.910Z,4.35
2022-12-25T08:23:37.502Z,4.44
2022-12-25T08:26:40.105Z,4.43
2022-12-25T08:29:44.631Z,4.42
2022-12-25T08:32:47.434Z,4.46
2022-12-25T08:35:50.405Z,4.51
2022-12-25T08:38:57.004Z,4.70
2022-12-25T08:42:03.718Z,4.69
2022-12-25T08:45:06.771Z,4.73
2022-12-25T08:48:09.622Z,4.73
2022-12-25T08:51:15.217Z,4.77
2022-12-25T08:54:18.148Z,4.92
2022-12-25T08:57:20.724Z,5.07
2022-12-25T09:00:23.896Z,5.29
2022-12-25T09:03:26.984Z,5.46
2022-12-25T09:06:29.929Z,5.56
2022-12-25T09:09:32.549Z,5.77
2022-12-25T09:12:36.132Z,5.97
2022-12-25T09:15:39.550Z,6.15
2022-12-25T09:18:43.055Z,6.35
2022-12-25T09:21:46.061Z,6.58
2022-12-25T09:24:49.101Z,6.67
2022-12-25T09:27:51.721Z,6.59
2022-12-25T09:30:54.987Z,6.51
2022-12-25T09:33:58.274Z,6.50
2022-12-25T09:37:02.065Z,6.56
2022-12-25T09:40:05.243Z,6.80
2022-12-25T09:43:15.951Z,7.30
2022-12-25T09:46:25.007Z,7.74
2022-12-25T09:49:38.961Z,8.14
2022-12-25T09:53:02.832Z,8.63
2022-12-25T09:56:25.934Z,9.08
2022-12-25T09:59:28.595Z,9.52
2022-12-25T10:02:53.458Z,9.72
2022-12-25T10:06:22.558Z,9.79
2022-12-25T10:09:25.158Z,9.87
2022-12-25T10:12:44.041Z,9.95
2022-12-25T10:16:02.815Z,9.99
2022-12-25T10:19:24.686Z,10.13
2022-12-25T10:22:40.481Z,10.21
2022-12-25T10:25:44.871Z,10.31
2022-12-25T10:29:09.627Z,10.42
2022-12-25T10:32:13.393Z,10.57
2022-12-25T10:35:18.965Z,10.56
2022-12-25T10:38:21.838Z,10.52
2022-12-25T10:42:00.056Z,10.60
2022-12-25T10:45:08.383Z,10.68
2022-12-25T10:48:25.051Z,10.72
2022-12-25T10:51:31.324Z,10.64
2022-12-25T10:54:36.096Z,10.69
2022-12-25T10:57:46.120Z,10.73
2022-12-25T11:00:58.411Z,10.87
2022-12-25T11:04:01.393Z,10.97
2022-12-25T11:07:18.944Z,11.02
2022-12-25T11:10:32.660Z,11.16
2022-12-25T11:13:40.731Z,11.20
2022-12-25T11:16:43.606Z,11.39
2022-12-25T11:19:53.591Z,11.34
2022-12-25T11:22:56.541Z,11.36
2022-12-25T11:26:05.774Z,11.41
2022-12-25T11:29:24.618Z,11.53
2022-12-25T11:32:48.824Z,11.63
2022-12-25T11:35:55.104Z,11.52
2022-12-25T11:39:09.913Z,11.61
2022-12-25T11:42:34.865Z,11.76
2022-12-25T11:45:49.172Z,11.82
2022-12-25T11:49:00.601Z,11.76
2022-12-25T11:52:06.613Z,11.81
2022-12-25T11:55:21.666Z,11.89
2022-12-25T11:58:53.104Z,11.88
2022-12-25T12:02:05.153Z,11.91
2022-12-25T12:05:17.770Z,12.00
2022-12-25T12:08:20.382Z,12.00
2022-12-25T12:11:38.998Z,12.11
2022-12-25T12:14:45.168Z,12.02
2022-12-25T12:17:48.039Z,11.86
2022-12-25T12:21:08.623Z,11.89
2022-12-25T12:24:20.874Z,11.93
2022-12-25T12:27:29.652Z,11.95
2022-12-25T12:30:35.551Z,12.37
2022-12-25T12:33:43.980Z,12.61
2022-12-25T12:36:47.007Z,12.70
2022-12-25T12:39:53.859Z,12.59
2022-12-25T12:42:57.166Z,12.19
2022-12-25T12:46:05.540Z,11.76
2022-12-25T12:49:10.044Z,11.50
2022-12-25T12:52:45.455Z,11.29
2022-12-25T12:55:48.450Z,11.12
2022-12-25T12:58:51.219Z,11.09
2022-12-25T13:02:16.906Z,11.26
2022-12-25T13:05:35.115Z,11.54
2022-12-25T13:08:50.327Z,11.75
2022-12-25T13:11:53.003Z,11.97
2022-12-25T13:14:56.208Z,11.88
2022-12-25T13:18:04.125Z,11.75
2022-12-25T13:21:07.478Z,11.89
2022-12-25T13:24:24.852Z,11.97
2022-12-25T13:27:31.202Z,12.19
2022-12-25T13:30:34.243Z,12.27
2022-12-25T13:33:37.852Z,12.27
2022-12-25T13:36:40.503Z,12.02
2022-12-25T13:39:59.163Z,11.89
2022-12-25T13:43:02.069Z,11.94
2022-12-25T13:46:05.150Z,11.99
2022-12-25T13:49:17.439Z,12.03
2022-12-25T13:52:32.370Z,11.95
2022-12-25T13:55:35.168Z,11.90
2022-12-25T13:58:39.509Z,11.91
2022-12-25T14:01:43.753Z,11.80
2022-12-25T14:04:46.752Z,11.79
2022-12-25T14:07:53.652Z,11.70
2022-12-25T14:10:57.451Z,11.63
2022-12-25T14:14:05.290Z,11.57
2022-12-25T14:17:11.458Z,11.65
2022-12-25T14:20:30.173Z,11.50
2022-12-25T14:23:46.859Z,11.42
2022-12-25T14:27:07.609Z,11.23
2022-12-25T14:30:12.962Z,11.13
2022-12-25T14:33:19.711Z,11.04
2022-12-25T14:36:22.678Z,11.01
2022-12-25T14:39:37.144Z,10.86
2022-12-25T14:42:40.235Z,10.78
2022-12-25T14:45:42.940Z,10.62
2022-12-25T14:48:45.835Z,10.67
2022-12-25T14:51:48.540Z,10.56
2022-12-25T14:54:59.977Z,10.57
2022-12-25T14:58:05.363Z,10.48
2022-12-25T15:01:21.031Z,10.47
2022-12-25T15:04:26.190Z,10.35
2022-12-25T15:07:31.353Z,10.27
2022-12-25T15:13:58.379Z,9.95
2022-12-25T15:17:01.693Z,9.71
2022-12-25T15:20:06.435Z,9.57
2022-12-25T15:23:19.728Z,9.43
2022-12-25T15:26:23.690Z,9.34
2022-12-25T15:29:59.705Z,9.11
2022-12-25T15:32:49.021Z,8.98
2022-12-25T15:35:51.981Z,8.78
2022-12-25T15:38:55.039Z,8.69
2022-12-25T15:42:13.643Z,8.85
2022-12-25T15:45:25.801Z,8.84
2022-12-25T15:48:28.687Z,8.88
2022-12-25T15:51:31.866Z,8.86
2022-12-25T15:54:34.650Z,8.84
2022-12-25T15:57:41.381Z,8.83
2022-12-25T16:00:44.133Z,8.78
2022-12-25T16:03:47.787Z,8.78
2022-12-25T16:06:51.899Z,8.74
2022-12-25T16:09:54.828Z,8.70
2022-12-25T16:12:57.457Z,8.69
2022-12-25T16:16:01.848Z,8.70
2022-12-25T16:19:05.293Z,8.77
2022-12-25T16:22:20.408Z,8.95
2022-12-25T16:25:24.043Z,8.95
2022-12-25T16:28:26.936Z,8.98
2022-12-25T16:31:29.621Z,9.03
2022-12-25T16:34:32.559Z,9.02
2022-12-25T16:37:35.676Z,9.03
2022-12-25T16:40:38.639Z,8.96
2022-12-25T16:43:41.286Z,8.95
2022-12-25T16:46:44.473Z,8.94
2022-12-25T16:49:47.422Z,8.91
2022-12-25T16:52:50.334Z,8.86
2022-12-25T16:55:52.859Z,8.87
2022-12-25T16:58:57.653Z,8.84
2022-12-25T17:02:00.700Z,8.79
2022-12-25T17:05:03.721Z,8.69
2022-12-25T17:08:06.641Z,8.59
2022-12-25T17:11:10.821Z,8.48
2022-12-25T17:14:13.441Z,8.42
2022-12-25T17:17:16.253Z,8.40
2022-12-25T17:20:18.950Z,8.55
2022-12-25T17:23:21.952Z,8.46
2022-12-25T17:26:24.613Z,8.41
2022-12-25T17:29:27.672Z,8.37
2022-12-25T17:32:30.291Z,8.29
2022-12-25T17:35:36.301Z,8.22
2022-12-25T17:38:39.499Z,8.22
2022-12-25T17:41:42.417Z,8.11
2022-12-25T17:44:44.966Z,8.06
2022-12-25T17:47:47.800Z,8.10
2022-12-25T17:50:50.389Z,8.09
2022-12-25T17:53:56.668Z,8.11
2022-12-25T17:56:59.331Z,8.00
2022-12-25T18:00:02.507Z,8.06
2022-12-25T18:03:11.626Z,7.97
2022-12-25T18:06:17.717Z,7.86
2022-12-25T18:09:20.328Z,7.83
2022-12-25T18:12:23.231Z,7.88
2022-12-25T18:15:25.876Z,7.79
2022-12-25T18:18:29.398Z,7.71
2022-12-25T18:21:32.341Z,7.56
2022-12-25T18:24:35.201Z,7.47
2022-12-25T18:27:37.768Z,7.43
2022-12-25T18:30:41.929Z,7.37
2022-12-25T18:33:45.752Z,7.27
2022-12-25T18:36:48.973Z,7.21
2022-12-25T18:39:51.649Z,7.18
2022-12-25T18:43:01.075Z,7.31
2022-12-25T18:46:09.108Z,7.35
2022-12-25T18:49:12.261Z,7.34
2022-12-25T18:52:49.020Z,7.38
2022-12-25T18:55:40.667Z,7.44
2022-12-25T18:58:43.778Z,7.43
2022-12-25T19:01:46.925Z,7.35
2022-12-25T19:04:49.646Z,7.33
2022-12-25T19:07:52.616Z,7.41
2022-12-25T19:10:55.274Z,7.43
2022-12-25T19:13:58.629Z,7.49
2022-12-25T19:17:01.477Z,7.55
2022-12-25T19:20:06.075Z,7.53
2022-12-25T19:23:09.165Z,7.59
2022-12-25T19:26:12.290Z,7.63
2022-12-25T19:29:14.909Z,7.60
2022-12-25T19:32:17.900Z,7.72
2022-12-25T19:35:20.586Z,7.69
2022-12-25T19:38:23.485Z,7.73
2022-12-25T19:41:26.376Z,7.74
2022-12-25T19:44:29.823Z,7.73
2022-12-25T19:47:32.669Z,7.70
2022-12-25T19:50:35.709Z,7.72
2022-12-25T19:53:38.886Z,7.77
2022-12-25T19:56:42.444Z,7.77
2022-12-25T19:59:45.125Z,7.77
2022-12-25T20:02:48.090Z,7.70
2022-12-25T20:05:51.773Z,7.75
2022-12-25T20:09:01.338Z,7.81
2022-12-25T20:12:04.474Z,7.87
2022-12-25T20:15:07.821Z,7.97
2022-12-25T20:18:10.807Z,8.18
2022-12-25T20:21:16.016Z,8.18
2022-12-25T20:24:18.855Z,8.22
2022-12-25T20:27:21.502Z,8.26
2022-12-25T20:30:24.356Z,8.17
2022-12-25T20:33:27.862Z,8.10
2022-12-25T20:36:36.298Z,8.00
2022-12-25T20:39:40.131Z,7.96
2022-12-25T20:42:43.458Z,7.96
2022-12-25T20:45:46.061Z,7.91
2022-12-25T20:48:48.959Z,7.99
2022-12-25T20:51:51.697Z,7.99
2022-12-25T20:54:54.681Z,8.01
2022-12-25T20:57:57.777Z,8.09
2022-12-25T21:01:05.256Z,8.20
2022-12-25T21:04:12.913Z,8.27
2022-12-25T21:07:18.836Z,8.26
2022-12-25T21:10:21.405Z,8.36
2022-12-25T21:13:25.016Z,8.34
2022-12-25T21:16:28.094Z,8.34
2022-12-25T21:19:31.039Z,8.52
2022-12-25T21:22:33.742Z,8.45
2022-12-25T21:25:36.648Z,8.47
2022-12-25T21:28:39.271Z,8.43
2022-12-25T21:32:01.057Z,8.48
2022-12-25T21:35:03.896Z,8.48
2022-12-25T21:38:07.130Z,8.56
2022-12-25T21:41:11.859Z,8.56
2022-12-25T21:44:14.946Z,8.50
2022-12-25T21:47:17.645Z,8.57
2022-12-25T21:50:39.583Z,8.54
2022-12-25T21:53:42.200Z,8.68
2022-12-25T21:56:47.301Z,8.56
2022-12-25T21:59:49.826Z,8.58
2022-12-25T22:02:52.957Z,8.58
2022-12-25T22:06:21.691Z,8.52
2022-12-25T22:09:25.033Z,8.48
2022-12-25T22:12:46.759Z,8.48
2022-12-25T22:16:08.103Z,8.49
2022-12-25T22:19:29.432Z,8.41
2022-12-25T22:22:32.159Z,8.33
2022-12-25T22:25:34.972Z,8.31
2022-12-25T22:28:37.616Z,8.29
2022-12-25T22:31:46.497Z,8.24
2022-12-25T22:34:49.595Z,8.25
2022-12-25T22:37:54.057Z,8.25
2022-12-25T22:40:57.076Z,8.30
2022-12-25T22:44:16.947Z,8.27
2022-12-25T22:47:20.127Z,8.32
2022-12-25T22:50:23.291Z,8.29
2022-12-25T22:53:25.831Z,8.25
2022-12-25T22:56:28.710Z,8.23
2022-12-25T22:59:32.891Z,8.28
2022-12-25T23:02:36.006Z,8.26
2022-12-25T23:05:38.760Z,8.32
2022-12-25T23:08:41.649Z,8.27
2022-12-25T23:11:45.627Z,8.32
2022-12-25T23:14:48.494Z,8.25
2022-12-25T23:18:09.761Z,8.25
2022-12-25T23:21:33.186Z,8.26
2022-12-25T23:24:54.712Z,8.22
2022-12-25T23:27:57.590Z,8.21
2022-12-25T23:31:00.235Z,8.26
2022-12-25T23:34:04.912Z,8.26
2022-12-25T23:37:07.874Z,8.26
2022-12-25T23:40:11.325Z,8.25
2022-12-25T23:43:13.932Z,8.23
2022-12-25T23:46:17.335Z,8.18
2022-12-25T23:49:21.287Z,8.15
2022-12-25T23:52:24.409Z,8.12
2022-12-25T23:55:27.166Z,8.05
2022-12-25T23:58:30.135Z,8.02
